Time;durP1;ratioP1;P1;durP2;ratioP2;P2;SDS_P1;SDS_P2;PMS_P1;PMS_P2;Temp;Humidity;BMP_temperature;BMP_pressure;BME280_temperature;BME280_humidity;BME280_pressure;Samples;Min_cycle;Max_cycle;Signal;HPM_P1;HPM_P2
2023/07/02 00:00:21;;;;;;;2.35;1.20;;;22.10;64.50;;;;;;5002417;28;20038;-67
2023/07/02 00:02:47;;;;;;;2.17;1.30;;;22.10;64.50;;;;;;5002490;28;20027;-68
2023/07/02 00:05:13;;;;;;;2.22;1.50;;;22.00;64.50;;;;;;5002660;28;20101;-68
2023/07/02 00:07:39;;;;;;;2.08;1.65;;;22.10;64.40;;;;;;5001265;28;20245;-68
2023/07/02 00:10:05;;;;;;;2.13;1.50;;;22.10;64.50;;;;;;5004417;28;20173;-68
2023/07/02 00:12:30;;;;;;;1.90;1.42;;;22.10;64.20;;;;;;5006911;28;20026;-68
2023/07/02 00:14:56;;;;;;;3.47;1.50;;;22.10;64.70;;;;;;5006298;28;20061;-67
2023/07/02 00:17:21;;;;;;;1.50;1.30;;;22.10;64.50;;;;;;5005986;28;20137;-69
2023/07/02 00:19:51;;;;;;;1.70;1.48;;;22.10;64.50;;;;;;5006317;28;20029;-66
2023/07/02 00:22:16;;;;;;;1.80;1.55;;;22.10;64.30;;;;;;5007183;28;20026;-68
2023/07/02 00:24:42;;;;;;;1.70;1.20;;;22.10;64.50;;;;;;5005498;28;20126;-67
2023/07/02 00:27:08;;;;;;;1.83;1.30;;;22.10;64.40;;;;;;5006228;28;21466;-68
2023/07/02 00:29:33;;;;;;;1.85;1.67;;;22.10;64.60;;;;;;5005557;28;20030;-68
2023/07/02 00:31:59;;;;;;;1.90;1.20;;;22.10;64.60;;;;;;5006323;28;20609;-68
2023/07/02 00:34:24;;;;;;;1.50;1.30;;;22.00;64.60;;;;;;5004755;28;20030;-68
2023/07/02 00:36:50;;;;;;;3.00;1.65;;;22.00;64.40;;;;;;5005668;28;20034;-68
2023/07/02 00:39:17;;;;;;;1.27;1.17;;;22.00;64.70;;;;;;5005994;28;20176;-69
2023/07/02 00:41:46;;;;;;;1.73;1.15;;;22.00;64.60;;;;;;5005297;28;20034;-68
2023/07/02 00:44:12;;;;;;;1.83;1.42;;;22.00;64.50;;;;;;5006588;28;20400;-68
2023/07/02 00:46:37;;;;;;;2.05;1.50;;;22.00;64.30;;;;;;5004531;28;20635;-67
2023/07/02 00:49:04;;;;;;;1.42;1.10;;;22.00;64.50;;;;;;5005202;28;20079;-68
2023/07/02 00:51:30;;;;;;;1.33;1.23;;;22.00;64.80;;;;;;5005066;28;20034;-67
2023/07/02 00:53:57;;;;;;;1.90;1.35;;;22.00;64.50;;;;;;5002691;28;20397;-68
2023/07/02 00:56:25;;;;;;;1.60;1.30;;;22.00;64.60;;;;;;5005261;28;20066;-68
2023/07/02 00:58:53;;;;;;;1.48;1.38;;;22.00;64.50;;;;;;5006135;28;20026;-68
2023/07/02 01:01:33;;;;;;;1.30;1.10;;;22.00;64.50;;;;;;5006225;28;20033;-68
2023/07/02 01:03:59;;;;;;;2.05;1.33;;;22.00;64.50;;;;;;5005832;28;20083;-69
2023/07/02 01:06:30;;;;;;;2.00;1.23;;;22.00;64.60;;;;;;5004644;28;20125;-68
2023/07/02 01:08:58;;;;;;;1.95;1.40;;;22.00;64.60;;;;;;5005417;28;20030;-67
2023/07/02 01:11:30;;;;;;;1.08;0.93;;;22.00;64.70;;;;;;5005600;28;20030;-68
2023/07/02 01:14:01;;;;;;;1.20;1.00;;;22.00;64.70;;;;;;5005752;28;20030;-68
2023/07/02 01:16:30;;;;;;;1.27;1.00;;;22.00;64.70;;;;;;5004849;28;20026;-66
2023/07/02 01:18:56;;;;;;;1.30;0.98;;;22.00;64.70;;;;;;5004363;28;20030;-67
2023/07/02 01:21:24;;;;;;;1.08;0.98;;;22.00;64.80;;;;;;5004035;28;20042;-68
2023/07/02 01:23:50;;;;;;;1.63;1.10;;;22.00;64.60;;;;;;5005243;28;20056;-68
2023/07/02 01:26:15;;;;;;;1.42;1.33;;;22.00;65.20;;;;;;5005433;28;20460;-68
2023/07/02 01:28:41;;;;;;;1.67;1.40;;;22.00;64.60;;;;;;5005213;28;20034;-68
2023/07/02 01:31:07;;;;;;;1.33;0.90;;;22.00;64.50;;;;;;5003851;28;20521;-68
2023/07/02 01:33:32;;;;;;;1.13;1.02;;;22.00;64.50;;;;;;5004351;28;20029;-68
2023/07/02 01:35:58;;;;;;;1.27;1.17;;;22.00;64.60;;;;;;5005494;28;20447;-69
2023/07/02 01:38:23;;;;;;;1.20;0.93;;;22.00;64.60;;;;;;5004849;28;20033;-69
2023/07/02 01:40:49;;;;;;;1.30;1.05;;;22.00;64.60;;;;;;5004800;28;20061;-68
2023/07/02 01:43:14;;;;;;;1.30;1.08;;;22.00;64.60;;;;;;5004696;28;20125;-69
2023/07/02 01:45:41;;;;;;;0.93;0.80;;;22.00;64.70;;;;;;5003698;28;20033;-68
2023/07/02 01:48:07;;;;;;;1.27;1.17;;;22.00;64.50;;;;;;5001997;28;20037;-69
2023/07/02 01:50:32;;;;;;;0.90;0.70;;;21.90;64.70;;;;;;5004743;28;20038;-67
2023/07/02 01:52:58;;;;;;;1.38;0.90;;;22.00;64.60;;;;;;5004860;28;20034;-69
2023/07/02 01:55:23;;;;;;;0.85;0.70;;;22.00;64.70;;;;;;5004957;28;20445;-69
2023/07/02 01:57:49;;;;;;;1.67;1.08;;;22.00;64.50;;;;;;5004984;28;20030;-69
2023/07/02 02:00:15;;;;;;;1.63;1.27;;;22.00;64.70;;;;;;5006450;28;20041;-69
2023/07/02 02:02:42;;;;;;;1.05;0.90;;;22.00;64.80;;;;;;5002359;28;20124;-68
2023/07/02 02:05:08;;;;;;;1.15;0.90;;;22.00;64.60;;;;;;5004042;28;20114;-68
2023/07/02 02:07:35;;;;;;;1.33;1.00;;;22.00;64.70;;;;;;5003713;28;20165;-68
2023/07/02 02:10:01;;;;;;;0.93;0.90;;;22.00;64.60;;;;;;5002758;28;20044;-68
2023/07/02 02:12:28;;;;;;;1.10;0.80;;;22.00;65.20;;;;;;5003782;28;20123;-68
2023/07/02 02:14:54;;;;;;;1.10;0.80;;;22.00;64.50;;;;;;5004079;28;20040;-68
2023/07/02 02:17:19;;;;;;;0.73;0.70;;;22.00;64.70;;;;;;5003903;28;20060;-68
2023/07/02 02:19:45;;;;;;;1.30;1.02;;;22.00;64.50;;;;;;5004073;28;20120;-68
2023/07/02 02:22:10;;;;;;;0.68;0.68;;;22.00;64.60;;;;;;5003921;28;20030;-68
2023/07/02 02:24:36;;;;;;;0.85;0.80;;;22.00;64.50;;;;;;5003635;28;20029;-67
2023/07/02 02:27:01;;;;;;;1.50;0.80;;;22.00;64.80;;;;;;5004351;28;20479;-68
2023/07/02 02:29:27;;;;;;;1.10;0.82;;;21.90;64.70;;;;;;5004352;28;20030;-68
2023/07/02 02:31:52;;;;;;;1.10;1.00;;;21.90;64.80;;;;;;5002845;28;20061;-67
2023/07/02 02:34:18;;;;;;;1.02;0.90;;;22.00;65.00;;;;;;5006069;28;20493;-67
2023/07/02 02:36:43;;;;;;;1.17;0.80;;;21.90;64.70;;;;;;5003182;28;20075;-66
2023/07/02 02:39:09;;;;;;;1.50;0.82;;;22.00;64.90;;;;;;5004535;28;20115;-68
2023/07/02 02:41:34;;;;;;;1.05;1.00;;;21.90;64.80;;;;;;5003340;28;20038;-67
2023/07/02 02:44:00;;;;;;;1.50;0.95;;;21.90;64.50;;;;;;5004073;28;20026;-67
2023/07/02 02:46:25;;;;;;;1.02;0.93;;;21.90;64.60;;;;;;5003023;28;20040;-68
2023/07/02 02:48:51;;;;;;;0.80;0.80;;;21.90;64.80;;;;;;5016936;28;20049;-67
2023/07/02 02:51:17;;;;;;;1.42;0.57;;;22.00;64.70;;;;;;5003947;28;20026;-67
2023/07/02 02:53:42;;;;;;;1.73;1.10;;;21.90;64.80;;;;;;5000640;28;20104;-67
2023/07/02 02:56:08;;;;;;;1.35;0.73;;;21.90;64.70;;;;;;5002520;28;20420;-67
2023/07/02 02:58:33;;;;;;;0.88;0.70;;;21.90;64.70;;;;;;5003399;28;20068;-68
2023/07/02 03:00:59;;;;;;;1.05;0.75;;;21.90;64.50;;;;;;5001986;28;20034;-67
2023/07/02 03:03:24;;;;;;;1.05;0.73;;;21.90;65.00;;;;;;5002431;28;20041;-68
2023/07/02 03:05:51;;;;;;;1.20;0.90;;;21.90;64.90;;;;;;5002879;28;20038;-68
2023/07/02 03:08:16;;;;;;;1.90;1.00;;;21.90;64.70;;;;;;5003410;28;20037;-68
2023/07/02 03:10:42;;;;;;;1.30;0.90;;;21.90;64.80;;;;;;5002035;28;20109;-68
2023/07/02 03:13:07;;;;;;;1.67;0.80;;;21.90;64.90;;;;;;5002450;28;20524;-67
2023/07/02 03:15:33;;;;;;;1.02;0.93;;;21.90;65.00;;;;;;5002660;28;20037;-68
2023/07/02 03:17:58;;;;;;;0.88;0.70;;;21.90;65.10;;;;;;5003705;28;20534;-69
2023/07/02 03:20:24;;;;;;;0.77;0.73;;;21.90;64.70;;;;;;5003248;28;20049;-68
2023/07/02 03:22:49;;;;;;;0.80;0.63;;;21.90;64.70;;;;;;4998793;28;20109;-68
2023/07/02 03:25:15;;;;;;;1.45;0.88;;;21.90;64.70;;;;;;5003421;28;20034;-68
2023/07/02 03:27:41;;;;;;;1.00;0.85;;;21.90;64.90;;;;;;5002120;28;20083;-68
2023/07/02 03:30:07;;;;;;;1.55;1.20;;;21.90;64.80;;;;;;5003240;28;20030;-68
2023/07/02 03:32:33;;;;;;;1.27;0.80;;;21.90;64.80;;;;;;4999886;28;20041;-67
2023/07/02 03:34:58;;;;;;;0.63;0.63;;;21.90;65.00;;;;;;5002709;28;20647;-68
2023/07/02 03:37:24;;;;;;;0.73;0.70;;;21.90;65.00;;;;;;5003703;28;20033;-66
2023/07/02 03:39:49;;;;;;;1.15;0.63;;;21.90;65.20;;;;;;5001145;28;20034;-68
2023/07/02 03:42:15;;;;;;;1.60;0.70;;;21.90;65.30;;;;;;5002866;28;20528;-68
2023/07/02 03:44:41;;;;;;;0.82;0.82;;;21.80;65.30;;;;;;4998443;28;20105;-68
2023/07/02 03:47:08;;;;;;;1.00;0.85;;;21.90;65.30;;;;;;5006146;28;20101;-65
2023/07/02 03:49:33;;;;;;;1.33;0.90;;;21.90;65.40;;;;;;5005856;28;20658;-68
2023/07/02 03:51:59;;;;;;;1.88;0.82;;;21.90;65.50;;;;;;5007362;28;20133;-68
2023/07/02 03:54:25;;;;;;;1.30;1.00;;;21.90;65.40;;;;;;5006442;28;20121;-68
2023/07/02 03:56:50;;;;;;;0.80;0.80;;;21.90;65.40;;;;;;5004472;28;20026;-68
2023/07/02 03:59:15;;;;;;;1.60;0.82;;;21.90;65.30;;;;;;5006188;28;20022;-69
2023/07/02 04:01:41;;;;;;;1.08;0.90;;;21.90;65.30;;;;;;5006381;28;20398;-67
2023/07/02 04:04:06;;;;;;;1.63;1.10;;;21.90;65.40;;;;;;5008053;28;20029;-63
2023/07/02 04:06:34;;;;;;;0.65;0.65;;;21.90;65.20;;;;;;5006456;28;20558;-68
2023/07/02 04:08:59;;;;;;;1.05;0.82;;;21.90;65.20;;;;;;5006733;28;20121;-68
2023/07/02 04:11:25;;;;;;;1.13;0.60;;;21.90;65.20;;;;;;5008154;28;20180;-65
2023/07/02 04:13:50;;;;;;;1.55;1.02;;;21.90;65.40;;;;;;5004903;28;20030;-66
2023/07/02 04:16:16;;;;;;;0.90;0.80;;;21.90;65.30;;;;;;5006804;28;20034;-68
2023/07/02 04:18:41;;;;;;;0.85;0.82;;;21.90;65.20;;;;;;5006803;28;20045;-67
2023/07/02 04:21:07;;;;;;;1.20;0.80;;;21.90;65.20;;;;;;5005008;28;20049;-68
2023/07/02 04:23:32;;;;;;;0.70;0.70;;;21.90;65.20;;;;;;5007088;28;20033;-67
2023/07/02 04:25:58;;;;;;;1.15;1.05;;;21.90;65.20;;;;;;5002978;28;20393;-65
2023/07/02 04:28:23;;;;;;;1.00;0.75;;;22.00;65.40;;;;;;5008274;28;20036;-68
2023/07/02 04:30:51;;;;;;;1.30;1.17;;;21.90;65.50;;;;;;5006411;28;20157;-64
2023/07/02 04:33:17;;;;;;;1.00;0.73;;;22.00;65.70;;;;;;5007537;28;20574;-67
2023/07/02 04:35:43;;;;;;;1.15;0.82;;;22.00;65.60;;;;;;5005408;28;20073;-68
2023/07/02 04:38:08;;;;;;;0.77;0.77;;;22.00;65.70;;;;;;5005686;28;20115;-66
2023/07/02 04:40:34;;;;;;;2.03;1.20;;;22.00;65.80;;;;;;5003080;28;20168;-66
2023/07/02 04:42:59;;;;;;;1.60;0.95;;;21.90;65.80;;;;;;5006707;28;20041;-67
2023/07/02 04:45:26;;;;;;;2.28;1.08;;;22.00;65.90;;;;;;5005310;28;20127;-67
2023/07/02 04:47:51;;;;;;;1.23;1.05;;;22.00;65.90;;;;;;5005381;28;20037;-64
2023/07/02 04:50:18;;;;;;;1.02;0.90;;;22.00;66.00;;;;;;5002919;28;20026;-67
2023/07/02 04:52:44;;;;;;;1.00;0.75;;;22.00;66.00;;;;;;5004666;28;20385;-68
2023/07/02 04:55:10;;;;;;;1.55;1.10;;;22.00;66.10;;;;;;5001861;28;20037;-68
2023/07/02 04:57:36;;;;;;;1.08;0.85;;;22.00;66.10;;;;;;5003696;28;20501;-67
2023/07/02 05:00:03;;;;;;;1.63;1.00;;;22.00;66.00;;;;;;5005372;28;20030;-67
2023/07/02 05:02:29;;;;;;;1.52;1.13;;;22.00;66.00;;;;;;5002401;28;20172;-67
2023/07/02 05:04:54;;;;;;;1.20;1.10;;;22.00;65.90;;;;;;5005268;28;20580;-67
2023/07/02 05:07:20;;;;;;;7.25;1.33;;;22.00;66.00;;;;;;5005249;28;20030;-67
2023/07/02 05:09:45;;;;;;;1.33;1.08;;;22.00;66.10;;;;;;5002006;28;20149;-68
2023/07/02 05:12:11;;;;;;;1.35;1.25;;;22.00;66.00;;;;;;5002201;28;20030;-67
2023/07/02 05:14:36;;;;;;;1.63;1.02;;;22.00;66.10;;;;;;5002370;28;20115;-68
2023/07/02 05:17:03;;;;;;;10.50;1.27;;;22.00;66.00;;;;;;5004426;28;20484;-63
2023/07/02 05:19:28;;;;;;;1.30;1.20;;;21.90;66.00;;;;;;5001826;28;20120;-67
2023/07/02 05:21:54;;;;;;;0.88;0.88;;;22.00;66.00;;;;;;5002610;28;20450;-67
2023/07/02 05:24:19;;;;;;;1.45;1.10;;;21.90;66.00;;;;;;5005408;28;20042;-68
2023/07/02 05:26:45;;;;;;;1.42;1.27;;;21.90;66.00;;;;;;5002896;28;20467;-62
2023/07/02 05:29:10;;;;;;;1.40;1.25;;;21.90;66.00;;;;;;5005031;28;20026;-68
2023/07/02 05:31:36;;;;;;;1.08;0.98;;;22.00;66.10;;;;;;5005055;28;20032;-66
2023/07/02 05:34:01;;;;;;;1.88;1.33;;;21.90;66.00;;;;;;4998151;28;20050;-63
2023/07/02 05:36:27;;;;;;;1.13;1.02;;;22.00;66.00;;;;;;5004340;28;20071;-64
2023/07/02 05:38:52;;;;;;;1.88;1.25;;;21.90;66.00;;;;;;5006888;28;20072;-66
2023/07/02 05:41:21;;;;;;;1.30;1.20;;;21.90;66.00;;;;;;5006630;28;20513;-64
2023/07/02 05:43:47;;;;;;;2.80;1.38;;;22.00;66.10;;;;;;5003644;28;20569;-67
2023/07/02 05:46:14;;;;;;;1.58;1.20;;;21.90;66.00;;;;;;5004339;28;20026;-66
2023/07/02 05:48:40;;;;;;;1.40;1.27;;;21.90;66.00;;;;;;4995451;28;20022;-66
2023/07/02 05:51:05;;;;;;;2.10;1.50;;;21.90;66.00;;;;;;5004213;28;20109;-64
2023/07/02 05:53:31;;;;;;;1.42;1.33;;;21.90;66.00;;;;;;5004319;28;20871;-66
2023/07/02 05:55:56;;;;;;;1.60;1.50;;;21.90;66.00;;;;;;5003453;28;20404;-61
2023/07/02 05:58:21;;;;;;;1.77;1.48;;;21.90;66.10;;;;;;5005368;28;20104;-64
2023/07/02 06:00:50;;;;;;;2.03;1.83;;;21.90;66.10;;;;;;5003713;28;20606;-68
2023/07/02 06:03:19;;;;;;;3.42;1.80;;;21.90;66.00;;;;;;5004656;28;20040;-67
2023/07/02 06:05:47;;;;;;;2.10;1.63;;;21.90;66.70;;;;;;5001951;28;20236;-64
2023/07/02 06:08:13;;;;;;;3.50;1.58;;;21.90;66.00;;;;;;5002041;28;20103;-68
2023/07/02 06:10:38;;;;;;;2.38;1.60;;;22.00;66.90;;;;;;4999405;28;20121;-67
2023/07/02 06:13:04;;;;;;;2.72;1.58;;;21.90;66.00;;;;;;5004731;28;20034;-66
2023/07/02 06:15:29;;;;;;;1.95;1.60;;;21.90;66.00;;;;;;5003755;28;20411;-66
2023/07/02 06:17:55;;;;;;;5.40;2.17;;;21.90;65.90;;;;;;5001502;28;20038;-63
2023/07/02 06:20:20;;;;;;;3.63;1.80;;;21.90;65.90;;;;;;5001945;28;20290;-66
2023/07/02 06:22:46;;;;;;;2.65;1.35;;;21.90;65.90;;;;;;5002503;28;20030;-67
2023/07/02 06:25:11;;;;;;;1.98;1.70;;;21.90;65.80;;;;;;5003557;28;20523;-66
2023/07/02 06:27:36;;;;;;;1.92;1.80;;;21.90;65.90;;;;;;5004234;28;20026;-66
2023/07/02 06:30:02;;;;;;;4.53;1.92;;;21.90;65.90;;;;;;5003487;28;20026;-60
2023/07/02 06:32:28;;;;;;;1.92;1.73;;;21.90;65.80;;;;;;5002349;28;20038;-65
2023/07/02 06:34:53;;;;;;;2.70;1.77;;;21.90;65.90;;;;;;5002465;28;20033;-67
2023/07/02 06:37:19;;;;;;;2.00;1.88;;;22.00;66.00;;;;;;4996921;28;20810;-65
2023/07/02 06:39:44;;;;;;;2.38;1.80;;;21.90;66.00;;;;;;5003377;28;20068;-67
2023/07/02 06:42:10;;;;;;;1.73;1.63;;;22.00;66.10;;;;;;5003417;28;20030;-67
2023/07/02 06:44:35;;;;;;;2.53;1.50;;;22.00;66.10;;;;;;5002390;28;20030;-66
2023/07/02 06:47:01;;;;;;;3.20;2.05;;;21.90;66.10;;;;;;4995166;28;20027;-64
2023/07/02 06:49:26;;;;;;;2.20;2.00;;;21.90;66.00;;;;;;5001604;28;20038;-67
2023/07/02 06:51:52;;;;;;;1.40;1.30;;;21.90;66.00;;;;;;5000741;28;20037;-64
2023/07/02 06:54:17;;;;;;;2.05;1.85;;;21.90;66.00;;;;;;5003507;28;20124;-64
2023/07/02 06:56:43;;;;;;;2.35;1.90;;;21.90;65.80;;;;;;5001577;28;20574;-65
2023/07/02 06:59:08;;;;;;;2.40;2.00;;;21.90;65.90;;;;;;5003867;28;20025;-62
2023/07/02 07:01:35;;;;;;;2.28;1.50;;;21.90;66.00;;;;;;5003578;28;20080;-66
2023/07/02 07:04:00;;;;;;;3.47;1.90;;;22.00;66.20;;;;;;5002159;28;20018;-65
2023/07/02 07:06:26;;;;;;;1.70;1.60;;;22.00;66.30;;;;;;5002860;28;20108;-61
2023/07/02 07:08:51;;;;;;;4.22;1.67;;;22.00;66.30;;;;;;5002544;28;20041;-63
2023/07/02 07:11:17;;;;;;;2.72;1.85;;;22.00;66.40;;;;;;5003580;28;20022;-62
2023/07/02 07:13:43;;;;;;;2.03;1.70;;;22.00;66.30;;;;;;4999448;28;20163;-63
2023/07/02 07:16:09;;;;;;;1.77;1.67;;;22.00;66.40;;;;;;5004957;28;20025;-66
2023/07/02 07:18:34;;;;;;;2.42;2.22;;;22.00;66.30;;;;;;5002403;28;20064;-59
2023/07/02 07:21:00;;;;;;;2.92;2.35;;;22.00;66.70;;;;;;5006214;28;20088;-62
2023/07/02 07:23:25;;;;;;;5.35;1.83;;;22.00;66.40;;;;;;5003113;28;20125;-59
2023/07/02 07:25:51;;;;;;;3.92;1.67;;;22.00;67.00;;;;;;5005659;28;20497;-63
2023/07/02 07:28:16;;;;;;;5.25;2.00;;;22.00;66.50;;;;;;5002323;28;20080;-64
2023/07/02 07:30:43;;;;;;;4.50;1.70;;;22.00;66.50;;;;;;5001465;28;20455;-64
2023/07/02 07:33:08;;;;;;;3.63;1.83;;;22.00;66.20;;;;;;5004092;28;20056;-58
2023/07/02 07:35:34;;;;;;;4.85;2.05;;;22.00;66.40;;;;;;5001794;28;20116;-57
2023/07/02 07:37:59;;;;;;;2.33;1.85;;;22.00;66.30;;;;;;5002678;28;20404;-64
2023/07/02 07:40:24;;;;;;;4.55;2.47;;;22.00;66.40;;;;;;5003222;28;20058;-65
2023/07/02 07:42:51;;;;;;;4.03;2.25;;;22.00;66.50;;;;;;5001513;28;20042;-61
2023/07/02 07:45:16;;;;;;;3.58;1.85;;;22.00;66.20;;;;;;5000076;28;20056;-65
2023/07/02 07:47:42;;;;;;;2.13;1.92;;;22.00;66.40;;;;;;5001321;28;20084;-61
2023/07/02 07:50:11;;;;;;;2.80;1.83;;;22.00;66.30;;;;;;5002834;28;20041;-63
2023/07/02 07:52:38;;;;;;;2.20;2.00;;;22.00;66.30;;;;;;5003539;28;20040;-62
2023/07/02 07:55:04;;;;;;;2.47;2.25;;;21.90;66.10;;;;;;5003115;28;20030;-59
2023/07/02 07:57:30;;;;;;;4.13;2.03;;;22.00;66.30;;;;;;5002890;28;20044;-61
2023/07/02 07:59:55;;;;;;;2.00;1.70;;;22.00;66.30;;;;;;5002406;28;20130;-61
2023/07/02 08:02:22;;;;;;;2.15;1.95;;;22.00;66.30;;;;;;5003180;28;20088;-63
2023/07/02 08:04:48;;;;;;;3.28;1.80;;;22.00;66.30;;;;;;5002468;28;20504;-65
2023/07/02 08:07:14;;;;;;;3.35;1.90;;;22.00;66.20;;;;;;5003287;28;20065;-65
2023/07/02 08:09:40;;;;;;;2.95;2.10;;;22.00;66.10;;;;;;4999876;28;20459;-65
2023/07/02 08:12:05;;;;;;;2.72;1.90;;;22.00;66.00;;;;;;4998817;28;20038;-65
2023/07/02 08:14:31;;;;;;;2.15;1.80;;;22.00;65.70;;;;;;5001131;28;20033;-66
2023/07/02 08:16:56;;;;;;;3.03;2.28;;;22.00;65.80;;;;;;5001648;28;20025;-66
2023/07/02 08:19:22;;;;;;;3.25;2.10;;;22.00;65.90;;;;;;5002298;28;20036;-65
2023/07/02 08:21:47;;;;;;;3.17;2.08;;;22.00;65.80;;;;;;5003086;28;20105;-65
2023/07/02 08:24:13;;;;;;;4.20;2.22;;;22.00;65.80;;;;;;5004362;28;20033;-66
2023/07/02 08:26:39;;;;;;;7.40;2.17;;;22.00;65.90;;;;;;5003362;28;20026;-66
2023/07/02 08:29:04;;;;;;;3.45;2.20;;;22.00;65.70;;;;;;5002114;28;20026;-66
2023/07/02 08:31:29;;;;;;;2.38;2.13;;;22.00;65.60;;;;;;5006135;28;20026;-65
2023/07/02 08:33:55;;;;;;;3.38;2.08;;;22.00;65.20;;;;;;5006372;28;20064;-67
2023/07/02 08:36:20;;;;;;;5.93;2.50;;;22.00;65.60;;;;;;5006467;28;20050;-66
2023/07/02 08:38:46;;;;;;;2.72;2.20;;;22.00;65.30;;;;;;5000129;28;20096;-65
2023/07/02 08:41:12;;;;;;;2.45;2.03;;;22.00;65.40;;;;;;5004439;28;20194;-65
2023/07/02 08:43:38;;;;;;;3.80;2.47;;;22.00;65.20;;;;;;5007978;28;20036;-65
2023/07/02 08:46:04;;;;;;;2.85;2.17;;;22.00;64.60;;;;;;5007352;28;20508;-65
2023/07/02 08:48:29;;;;;;;2.92;2.25;;;22.00;65.30;;;;;;5010215;28;20046;-66
2023/07/02 08:50:56;;;;;;;5.32;1.85;;;22.00;65.20;;;;;;5009334;28;20084;-66
2023/07/02 08:53:25;;;;;;;3.05;2.22;;;22.00;65.30;;;;;;5006733;28;20125;-66
2023/07/02 08:55:51;;;;;;;4.35;1.92;;;22.00;65.20;;;;;;5004777;28;20042;-66
2023/07/02 08:58:16;;;;;;;3.10;1.88;;;22.00;65.00;;;;;;5006948;28;20617;-66
2023/07/02 09:01:08;;;;;;;2.13;1.92;;;22.00;65.10;;;;;;5004933;28;20052;-67
2023/07/02 09:03:34;;;;;;;2.47;1.80;;;22.00;64.80;;;;;;5005052;28;20033;-66
2023/07/02 09:05:59;;;;;;;1.65;1.55;;;22.00;64.40;;;;;;5000377;28;20433;-66
2023/07/02 09:08:26;;;;;;;1.65;1.55;;;22.00;63.60;;;;;;5004192;28;20084;-69
2023/07/02 09:10:51;;;;;;;2.95;1.80;;;22.00;64.60;;;;;;5005868;28;20117;-67
2023/07/02 09:13:17;;;;;;;2.35;1.83;;;22.00;64.50;;;;;;5004608;28;20648;-66
2023/07/02 09:15:43;;;;;;;1.73;1.60;;;22.00;64.40;;;;;;5002913;28;20106;-65
2023/07/02 09:18:23;;;;;;;2.60;1.60;;;22.00;64.30;;;;;;5006828;28;20034;-67
2023/07/02 09:20:54;;;;;;;1.60;1.50;;;22.00;64.10;;;;;;5004589;28;20041;-65
2023/07/02 09:23:20;;;;;;;3.00;1.60;;;22.00;63.90;;;;;;5007592;28;20044;-65
2023/07/02 09:25:46;;;;;;;2.83;1.30;;;21.90;63.90;;;;;;5007555;28;20090;-64
2023/07/02 09:28:23;;;;;;;1.92;1.80;;;21.90;63.00;;;;;;5006302;28;20057;-66
2023/07/02 09:30:51;;;;;;;2.08;1.75;;;21.90;63.00;;;;;;5004694;28;20030;-64
2023/07/02 09:33:17;;;;;;;2.10;1.70;;;21.90;63.00;;;;;;5007874;28;20092;-65
2023/07/02 09:35:43;;;;;;;2.00;1.45;;;21.90;62.90;;;;;;5005686;28;20048;-66
2023/07/02 09:38:09;;;;;;;1.38;1.27;;;21.90;62.60;;;;;;5002840;28;20505;-65
2023/07/02 09:40:44;;;;;;;1.73;1.63;;;21.90;62.30;;;;;;5003947;28;20030;-65
2023/07/02 09:43:10;;;;;;;2.78;1.60;;;21.90;62.20;;;;;;5002244;28;20069;-65
2023/07/02 09:45:36;;;;;;;4.55;1.88;;;21.90;61.90;;;;;;5003866;28;20041;-65
2023/07/02 09:48:02;;;;;;;1.98;1.73;;;21.90;62.30;;;;;;5002801;28;20505;-65
2023/07/02 09:50:29;;;;;;;1.60;1.50;;;21.90;62.20;;;;;;5004747;28;20038;-64
2023/07/02 09:52:55;;;;;;;2.22;1.75;;;21.90;60.60;;;;;;5004451;28;20042;-65
2023/07/02 09:55:21;;;;;;;1.80;1.52;;;21.90;61.50;;;;;;5003908;28;20516;-64
2023/07/02 09:57:47;;;;;;;1.95;1.50;;;21.90;61.40;;;;;;5001819;28;20776;-66
2023/07/02 10:00:14;;;;;;;1.95;1.60;;;21.90;60.90;;;;;;5004923;28;20030;-66
2023/07/02 10:02:39;;;;;;;1.55;1.42;;;21.90;61.50;;;;;;5004394;28;20436;-65
2023/07/02 10:05:05;;;;;;;1.98;1.42;;;21.80;61.00;;;;;;5004972;28;20037;-65
2023/07/02 10:07:34;;;;;;;1.88;1.40;;;21.80;61.90;;;;;;5001969;28;20041;-65
2023/07/02 10:10:00;;;;;;;1.75;1.40;;;21.80;61.90;;;;;;5003999;28;20042;-65
2023/07/02 10:12:28;;;;;;;1.67;1.50;;;21.80;62.10;;;;;;5004994;28;20034;-65
2023/07/02 10:14:56;;;;;;;1.42;1.30;;;21.80;62.20;;;;;;4999414;28;20121;-64
2023/07/02 10:17:29;;;;;;;1.55;1.35;;;21.80;62.00;;;;;;5004796;28;20697;-65
2023/07/02 10:19:56;;;;;;;1.58;1.48;;;21.80;62.20;;;;;;5001016;28;20042;-65
2023/07/02 10:22:22;;;;;;;1.65;1.55;;;21.90;62.10;;;;;;5001855;28;20049;-65
2023/07/02 10:25:00;;;;;;;3.15;1.50;;;21.80;62.10;;;;;;5005164;28;20437;-66
2023/07/02 10:27:42;;;;;;;2.28;1.52;;;21.90;62.20;;;;;;5005398;28;20118;-66
2023/07/02 10:30:09;;;;;;;1.60;1.50;;;21.80;61.50;;;;;;4998123;28;20109;-65
2023/07/02 10:32:36;;;;;;;2.85;2.00;;;21.80;61.50;;;;;;5003105;28;20030;-65
2023/07/02 10:35:15;;;;;;;1.88;1.77;;;21.90;61.90;;;;;;5001710;28;20037;-65
2023/07/02 10:37:41;;;;;;;2.03;1.42;;;21.80;61.90;;;;;;5001398;28;20103;-67
2023/07/02 10:40:08;;;;;;;1.55;1.45;;;21.90;62.00;;;;;;5002512;28;20026;-67
2023/07/02 10:42:36;;;;;;;2.53;1.63;;;21.80;62.10;;;;;;5004347;28;20026;-66
2023/07/02 10:45:02;;;;;;;1.95;1.75;;;21.80;61.80;;;;;;5002671;28;20040;-65
2023/07/02 10:47:28;;;;;;;2.15;1.85;;;21.80;62.10;;;;;;5003418;28;20034;-64
2023/07/02 10:49:54;;;;;;;3.38;2.10;;;21.80;62.30;;;;;;5002636;28;20384;-64
2023/07/02 10:52:19;;;;;;;8.23;2.67;;;21.90;62.20;;;;;;5002053;28;20040;-67
2023/07/02 10:54:48;;;;;;;4.00;2.38;;;21.90;62.00;;;;;;5004223;28;20022;-64
2023/07/02 10:57:21;;;;;;;3.58;2.78;;;21.90;61.80;;;;;;5003457;28;20408;-65
2023/07/02 10:59:48;;;;;;;2.20;1.85;;;21.90;62.10;;;;;;5004111;28;20026;-67
2023/07/02 11:02:14;;;;;;;2.30;2.10;;;21.80;62.30;;;;;;5003176;28;20041;-67
2023/07/02 11:04:39;;;;;;;2.42;2.10;;;21.80;61.90;;;;;;5017603;28;20034;-67
2023/07/02 11:07:05;;;;;;;2.15;1.95;;;21.80;62.00;;;;;;5006004;28;20474;-67
2023/07/02 11:09:31;;;;;;;1.83;1.73;;;21.80;62.30;;;;;;5008697;28;20038;-68
2023/07/02 11:11:58;;;;;;;2.72;2.15;;;21.80;62.30;;;;;;5006702;28;20030;-66
2023/07/02 11:14:31;;;;;;;1.88;1.63;;;21.80;62.10;;;;;;5006566;28;20056;-67
2023/07/02 11:16:57;;;;;;;2.22;2.00;;;21.80;62.10;;;;;;5004867;28;20057;-63
2023/07/02 11:19:23;;;;;;;3.22;2.22;;;21.80;62.40;;;;;;5008420;28;20026;-68
2023/07/02 11:21:57;;;;;;;3.78;2.42;;;21.80;62.00;;;;;;5006164;28;20041;-65
2023/07/02 11:24:30;;;;;;;3.45;2.33;;;21.80;60.70;;;;;;5004239;28;20489;-68
2023/07/02 11:26:56;;;;;;;3.25;2.30;;;21.80;61.50;;;;;;5000942;28;20063;-67
2023/07/02 11:29:22;;;;;;;2.92;2.42;;;21.80;62.10;;;;;;5004116;28;20116;-68
2023/07/02 11:31:48;;;;;;;2.60;2.22;;;21.80;62.00;;;;;;5004094;28;20034;-66
2023/07/02 11:34:14;;;;;;;4.82;2.22;;;21.80;62.00;;;;;;5000355;28;20026;-66
2023/07/02 11:36:40;;;;;;;2.53;2.33;;;21.80;62.20;;;;;;5002357;28;20215;-66
2023/07/02 11:39:06;;;;;;;3.08;2.33;;;21.80;62.40;;;;;;5003346;28;20690;-65
2023/07/02 11:41:44;;;;;;;4.55;2.28;;;21.80;62.30;;;;;;5002604;28;20469;-66
2023/07/02 11:44:09;;;;;;;3.75;2.80;;;21.80;62.20;;;;;;4991723;28;20061;-66
2023/07/02 11:46:35;;;;;;;2.25;2.05;;;21.80;62.10;;;;;;5000407;28;20068;-67
2023/07/02 11:49:01;;;;;;;2.95;2.70;;;21.80;62.10;;;;;;5002198;28;20049;-66
2023/07/02 11:51:27;;;;;;;2.80;2.38;;;21.80;62.20;;;;;;5004430;28;20054;-65
2023/07/02 11:53:53;;;;;;;7.00;2.60;;;21.80;61.90;;;;;;5006523;28;20030;-67
2023/07/02 11:56:18;;;;;;;4.00;2.42;;;21.80;61.40;;;;;;5007295;28;20053;-67
2023/07/02 11:58:44;;;;;;;2.40;2.20;;;21.80;61.80;;;;;;5003969;28;20034;-65
2023/07/02 12:01:09;;;;;;;4.10;2.35;;;21.80;62.00;;;;;;5003287;28;20034;-65
2023/07/02 12:03:35;;;;;;;5.40;2.58;;;21.80;62.00;;;;;;5004164;28;20034;-66
2023/07/02 12:06:00;;;;;;;2.92;2.17;;;21.80;61.80;;;;;;5005929;28;20034;-67
2023/07/02 12:08:26;;;;;;;2.92;2.47;;;21.80;61.80;;;;;;5006835;28;20097;-68
2023/07/02 12:10:51;;;;;;;2.50;2.30;;;21.80;61.50;;;;;;5005827;28;20108;-66
2023/07/02 12:13:17;;;;;;;2.00;1.88;;;21.80;61.20;;;;;;5002845;28;20034;-68
2023/07/02 12:15:43;;;;;;;2.58;2.00;;;21.80;61.50;;;;;;5002693;28;20605;-69
2023/07/02 12:18:09;;;;;;;2.53;2.13;;;21.80;61.50;;;;;;5005384;28;20044;-69
2023/07/02 12:20:34;;;;;;;2.85;2.10;;;21.80;61.30;;;;;;5008501;28;20057;-66
2023/07/02 12:23:00;;;;;;;1.90;1.75;;;21.80;60.00;;;;;;5008946;28;20049;-66
2023/07/02 12:25:26;;;;;;;3.95;2.20;;;21.80;60.80;;;;;;5009984;28;20100;-66
2023/07/02 12:27:51;;;;;;;2.42;1.83;;;21.80;60.30;;;;;;5006201;28;20034;-66
2023/07/02 12:30:18;;;;;;;3.58;2.25;;;21.80;60.70;;;;;;5007145;28;20030;-66
2023/07/02 12:32:44;;;;;;;1.95;1.75;;;21.80;60.60;;;;;;5007430;28;20022;-68
2023/07/02 12:35:10;;;;;;;3.03;2.25;;;21.80;60.70;;;;;;5004109;28;20418;-67
2023/07/02 12:37:42;;;;;;;2.13;1.92;;;21.80;61.00;;;;;;5004776;28;20041;-67
2023/07/02 12:40:08;;;;;;;3.08;2.40;;;21.80;60.60;;;;;;5004617;28;20041;-67
2023/07/02 12:42:33;;;;;;;2.35;2.05;;;21.80;60.80;;;;;;5006310;28;20033;-66